createdAt,value
2019-05-01T00:01:11.873Z,32.75
2019-05-01T00:03:28.699Z,33.67
2019-05-01T00:05:36.969Z,35.20
2019-05-01T00:07:38.998Z,32.63
2019-05-01T00:09:41.323Z,39.33
2019-05-01T00:11:43.814Z,27.93
2019-05-01T00:13:45.938Z,29.82
2019-05-01T00:15:48.960Z,36.60
2019-05-01T00:17:51.175Z,36.98
2019-05-01T00:19:53.269Z,39.03
2019-05-01T00:21:55.270Z,38.75
2019-05-01T00:23:57.571Z,38.35
2019-05-01T00:28:01.353Z,34.30
2019-05-01T00:30:05.683Z,40.55
2019-05-01T00:32:09.598Z,38.45
2019-05-01T00:34:12.054Z,42.10
2019-05-01T00:38:16.278Z,35.17
2019-05-01T00:40:19.243Z,38.08
2019-05-01T00:42:21.592Z,43.58
2019-05-01T00:44:23.843Z,34.08
2019-05-01T00:46:25.849Z,44.63
2019-05-01T00:48:28.057Z,38.67
2019-05-01T00:50:30.134Z,40.90
2019-05-01T00:52:32.136Z,44.50
2019-05-01T00:54:36.101Z,39.92
2019-05-01T00:57:06.812Z,46.68
2019-05-01T00:59:16.970Z,45.58
2019-05-01T01:01:37.457Z,42.13
2019-05-01T01:03:41.093Z,44.13
2019-05-01T01:05:43.602Z,37.35
2019-05-01T01:07:46.344Z,42.08
2019-05-01T01:09:48.942Z,47.30
2019-05-01T01:11:51.457Z,44.15
2019-05-01T01:13:54.488Z,40.43
2019-05-01T01:15:57.028Z,42.53
2019-05-01T01:17:59.370Z,40.20
2019-05-01T01:20:03.608Z,39.90
2019-05-01T01:22:07.403Z,37.15
2019-05-01T01:24:10.779Z,35.63
2019-05-01T01:26:15.238Z,40.15
2019-05-01T01:28:18.101Z,38.20
2019-05-01T01:30:21.170Z,35.78
2019-05-01T01:32:25.183Z,39.38
2019-05-01T01:34:27.654Z,38.02
2019-05-01T01:38:32.267Z,41.37
2019-05-01T01:42:38.613Z,37.83
2019-05-01T01:44:47.864Z,40.12
2019-05-01T01:46:51.003Z,37.23
2019-05-01T01:48:53.799Z,41.53
2019-05-01T01:50:56.922Z,42.55
2019-05-01T01:53:00.733Z,43.40
2019-05-01T01:55:03.964Z,37.10
2019-05-01T01:57:10.086Z,42.05
2019-05-01T01:59:12.948Z,44.33
2019-05-01T02:01:44.710Z,40.50
2019-05-01T02:03:51.939Z,44.45
2019-05-01T02:05:55.470Z,41.08
2019-05-01T02:07:57.883Z,43.02
2019-05-01T02:10:01.153Z,39.70
2019-05-01T02:12:04.912Z,44.88
2019-05-01T02:14:07.296Z,37.85
2019-05-01T02:18:14.290Z,35.17
2019-05-01T02:20:17.479Z,37.78
2019-05-01T02:22:20.180Z,34.30
2019-05-01T02:24:22.569Z,35.20
2019-05-01T02:26:27.647Z,38.98
2019-05-01T02:28:47.031Z,39.65
2019-05-01T02:31:07.258Z,38.65
2019-05-01T02:33:13.042Z,43.95
2019-05-01T02:35:18.837Z,47.45
2019-05-01T02:37:24.158Z,36.28
2019-05-01T02:39:29.059Z,35.05
2019-05-01T02:41:41.139Z,39.05
2019-05-01T02:43:45.094Z,46.42
2019-05-01T02:45:57.809Z,40.33
2019-05-01T02:48:01.461Z,40.60
2019-05-01T02:50:06.654Z,46.42
2019-05-01T02:52:11.924Z,40.95
2019-05-01T02:54:16.956Z,38.75
2019-05-01T02:56:46.350Z,43.73
2019-05-01T02:58:53.050Z,39.75
2019-05-01T03:00:55.358Z,41.73
2019-05-01T03:02:59.594Z,39.83
2019-05-01T03:05:03.415Z,41.83
2019-05-01T03:07:06.963Z,44.15
2019-05-01T03:09:09.188Z,42.88
2019-05-01T03:11:11.394Z,44.25
2019-05-01T03:13:13.870Z,42.73
2019-05-01T03:17:46.322Z,41.08
2019-05-01T03:19:58.454Z,45.70
2019-05-01T03:22:07.531Z,44.83
2019-05-01T03:24:14.418Z,45.40
2019-05-01T03:26:17.443Z,45.15
2019-05-01T03:28:20.489Z,39.92
2019-05-01T03:30:22.984Z,46.58
2019-05-01T03:32:25.465Z,51.77
2019-05-01T03:36:29.468Z,46.40
2019-05-01T03:38:32.056Z,49.08
2019-05-01T03:40:34.848Z,52.58
2019-05-01T03:42:36.971Z,53.42
2019-05-01T03:44:39.278Z,46.73
2019-05-01T03:46:42.322Z,46.45
2019-05-01T03:48:44.543Z,37.23
2019-05-01T03:50:48.529Z,46.58
2019-05-01T03:52:50.743Z,44.42
2019-05-01T03:54:53.054Z,47.95
2019-05-01T03:56:55.325Z,46.92
2019-05-01T03:58:58.019Z,41.83
2019-05-01T04:01:38.680Z,37.00
2019-05-01T04:04:00.921Z,38.63
2019-05-01T04:06:03.815Z,37.23
2019-05-01T04:08:06.037Z,42.40
2019-05-01T04:10:08.828Z,46.60
2019-05-01T04:12:11.172Z,47.83
2019-05-01T04:14:13.460Z,48.23
2019-05-01T04:16:16.236Z,47.33
2019-05-01T04:18:18.406Z,45.98
2019-05-01T04:20:20.626Z,48.70
2019-05-01T04:22:22.959Z,48.28
2019-05-01T04:24:25.617Z,44.88
2019-05-01T04:26:27.821Z,45.78
2019-05-01T04:28:58.823Z,48.87
2019-05-01T04:31:09.393Z,50.90
2019-05-01T04:33:13.558Z,47.70
2019-05-01T04:35:24.280Z,52.93
2019-05-01T04:37:27.860Z,51.28
2019-05-01T04:39:30.183Z,46.28
2019-05-01T04:41:33.108Z,42.27
2019-05-01T04:43:35.242Z,51.05
2019-05-01T04:45:37.267Z,40.25
2019-05-01T04:47:39.808Z,40.80
2019-05-01T04:51:44.230Z,47.08
2019-05-01T04:55:48.854Z,44.23
2019-05-01T04:57:51.665Z,56.18
2019-05-01T04:59:54.053Z,50.58
2019-05-01T05:04:00.464Z,39.10
2019-05-01T05:06:02.965Z,41.77
2019-05-01T05:08:05.610Z,44.05
2019-05-01T05:10:07.716Z,40.80
2019-05-01T05:12:32.913Z,43.28
2019-05-01T05:14:36.805Z,39.15
2019-05-01T05:16:52.502Z,38.53
2019-05-01T05:18:54.864Z,38.17
2019-05-01T05:23:20.399Z,35.80
2019-05-01T05:25:22.703Z,29.02
2019-05-01T05:27:25.668Z,27.95
2019-05-01T05:29:30.384Z,33.35
2019-05-01T05:31:33.562Z,26.77
2019-05-01T05:33:37.162Z,30.27
2019-05-01T05:35:40.612Z,28.00
2019-05-01T05:38:04.927Z,28.40
2019-05-01T05:40:07.293Z,33.33
2019-05-01T05:42:09.624Z,30.30
2019-05-01T05:44:12.152Z,32.45
2019-05-01T05:46:14.569Z,28.85
2019-05-01T05:50:21.067Z,28.07
2019-05-01T05:53:22.730Z,27.98
2019-05-01T05:55:35.069Z,32.15
2019-05-01T05:57:57.517Z,30.20
2019-05-01T06:00:13.437Z,29.87
2019-05-01T06:02:42.196Z,27.32
2019-05-01T06:04:58.291Z,35.23
2019-05-01T06:07:23.375Z,35.78
2019-05-01T06:09:37.735Z,27.07
2019-05-01T06:11:59.792Z,32.83
2019-05-01T06:14:11.878Z,33.10
2019-05-01T06:16:36.450Z,29.72
2019-05-01T06:18:58.169Z,27.48
2019-05-01T06:21:09.143Z,24.57
2019-05-01T06:23:43.198Z,27.80
2019-05-01T06:25:48.869Z,25.05
2019-05-01T06:27:50.998Z,29.77
2019-05-01T06:29:55.306Z,28.02
2019-05-01T06:31:58.804Z,24.02
2019-05-01T06:34:01.668Z,40.38
2019-05-01T06:36:03.867Z,29.37
2019-05-01T06:38:11.376Z,28.52
2019-05-01T06:40:18.802Z,20.20
2019-05-01T06:42:21.505Z,24.77
2019-05-01T06:44:39.086Z,20.27
2019-05-01T06:46:46.974Z,20.40
2019-05-01T06:48:55.834Z,21.85
2019-05-01T06:51:18.759Z,19.40
2019-05-01T06:53:22.297Z,19.62
2019-05-01T06:55:28.756Z,18.35
2019-05-01T06:57:30.917Z,17.07
2019-05-01T07:01:36.055Z,18.10
2019-05-01T07:03:40.809Z,19.15
2019-05-01T07:05:44.640Z,19.35
2019-05-01T07:07:47.983Z,20.45
2019-05-01T07:09:53.703Z,19.57
2019-05-01T07:12:00.406Z,17.95
2019-05-01T07:14:02.643Z,19.80
2019-05-01T07:18:06.791Z,16.80
2019-05-01T07:20:25.580Z,18.23
2019-05-01T07:22:27.980Z,23.12
2019-05-01T07:24:31.104Z,20.55
2019-05-01T07:26:33.479Z,19.40
2019-05-01T07:28:37.327Z,18.48
2019-05-01T07:30:54.854Z,19.15
2019-05-01T07:32:56.153Z,17.80
2019-05-01T07:35:01.927Z,18.75
2019-05-01T07:37:03.504Z,18.30
2019-05-01T07:39:09.975Z,19.57
2019-05-01T07:41:13.435Z,18.90
2019-05-01T07:43:31.964Z,20.90
2019-05-01T07:45:54.507Z,19.70
2019-05-01T07:48:01.040Z,17.62
2019-05-01T07:50:04.067Z,17.15
2019-05-01T07:52:07.017Z,17.07
2019-05-01T07:54:09.137Z,18.10
2019-05-01T07:56:11.254Z,20.37
2019-05-01T07:58:15.816Z,22.32
2019-05-01T08:00:30.859Z,15.18
2019-05-01T08:02:33.113Z,14.93
2019-05-01T08:04:36.504Z,19.92
2019-05-01T08:06:39.041Z,18.48
2019-05-01T08:08:41.060Z,18.92
2019-05-01T08:10:43.293Z,16.95
2019-05-01T08:12:45.615Z,14.28
2019-05-01T08:14:52.365Z,21.12
2019-05-01T08:16:52.445Z,17.75
2019-05-01T08:19:05.918Z,14.03
2019-05-01T08:21:30.476Z,14.40
2019-05-01T08:23:32.931Z,17.75
2019-05-01T08:27:46.535Z,15.05
2019-05-01T08:29:58.362Z,16.37
2019-05-01T08:32:20.389Z,15.70
2019-05-01T08:34:25.373Z,18.25
2019-05-01T08:36:28.220Z,15.20
2019-05-01T08:38:34.271Z,14.90
2019-05-01T08:40:37.252Z,16.07
2019-05-01T08:42:42.745Z,15.53
2019-05-01T08:45:21.904Z,17.02
2019-05-01T08:47:29.236Z,16.20
2019-05-01T08:49:42.217Z,16.90
2019-05-01T08:51:43.259Z,22.22
2019-05-01T08:53:45.238Z,14.87
2019-05-01T08:55:47.602Z,16.70
2019-05-01T08:57:49.596Z,17.80
2019-05-01T08:59:55.698Z,16.23
2019-05-01T09:02:09.094Z,16.82
2019-05-01T09:04:12.101Z,17.57
2019-05-01T09:06:03.923Z,16.67
2019-05-01T09:08:06.227Z,21.05
2019-05-01T09:10:09.219Z,15.30
2019-05-01T09:12:13.559Z,15.18
2019-05-01T09:14:15.993Z,14.00
2019-05-01T09:16:19.271Z,20.43
2019-05-01T09:18:21.494Z,12.93
2019-05-01T09:20:24.269Z,14.68
2019-05-01T09:22:26.397Z,11.93
2019-05-01T09:24:29.445Z,13.38
2019-05-01T09:26:51.527Z,15.88
2019-05-01T09:28:58.202Z,14.33
2019-05-01T09:31:03.329Z,12.13
2019-05-01T09:33:06.800Z,13.22
2019-05-01T09:35:15.401Z,12.03
2019-05-01T09:37:13.413Z,13.62
2019-05-01T09:39:16.686Z,15.18
2019-05-01T09:41:18.685Z,15.70
2019-05-01T09:43:20.827Z,14.80
2019-05-01T09:45:23.574Z,12.28
2019-05-01T09:47:25.874Z,17.25
2019-05-01T09:49:27.925Z,15.63
2019-05-01T09:51:49.321Z,13.70
2019-05-01T09:54:16.931Z,12.60
2019-05-01T09:56:23.326Z,11.25
2019-05-01T09:58:29.722Z,15.40
2019-05-01T10:00:32.743Z,15.58
2019-05-01T10:02:37.569Z,14.90
2019-05-01T10:04:38.973Z,14.00
2019-05-01T10:06:41.110Z,14.30
2019-05-01T10:08:43.380Z,18.90
2019-05-01T10:10:45.675Z,15.35
2019-05-01T10:12:48.477Z,15.25
2019-05-01T10:14:50.692Z,14.53
2019-05-01T10:16:52.927Z,15.00
2019-05-01T10:18:54.922Z,12.70
2019-05-01T10:20:56.980Z,14.93
2019-05-01T10:22:59.105Z,17.20
2019-05-01T10:25:01.366Z,12.40
2019-05-01T10:29:27.617Z,12.82
2019-05-01T10:31:49.412Z,11.83
2019-05-01T10:33:53.187Z,12.13
2019-05-01T10:36:27.263Z,20.02
2019-05-01T10:38:29.251Z,14.03
2019-05-01T10:40:32.451Z,17.95
2019-05-01T10:42:35.493Z,15.13
2019-05-01T10:44:37.512Z,16.67
2019-05-01T10:46:39.823Z,10.85
2019-05-01T10:48:42.097Z,14.15
2019-05-01T10:50:44.096Z,18.12
2019-05-01T10:52:46.175Z,16.02
2019-05-01T10:54:48.505Z,14.40
2019-05-01T10:56:50.643Z,11.15
2019-05-01T10:58:52.702Z,14.75
2019-05-01T11:01:01.288Z,13.78
2019-05-01T11:03:03.375Z,11.18
2019-05-01T11:05:05.678Z,11.33
2019-05-01T11:07:08.024Z,12.35
2019-05-01T11:09:10.263Z,13.68
2019-05-01T11:11:12.463Z,17.15
2019-05-01T11:13:14.746Z,17.77
2019-05-01T11:15:18.671Z,14.38
2019-05-01T11:17:20.700Z,17.32
2019-05-01T11:19:22.950Z,12.60
2019-05-01T11:21:24.959Z,11.45
2019-05-01T11:23:27.048Z,10.60
2019-05-01T11:25:29.757Z,11.48
2019-05-01T11:27:31.975Z,17.35
2019-05-01T11:29:33.983Z,11.12
2019-05-01T11:32:07.988Z,14.80
2019-05-01T11:34:34.119Z,9.00
2019-05-01T11:36:50.270Z,12.60
2019-05-01T11:39:00.732Z,9.13
2019-05-01T11:41:08.420Z,14.25
2019-05-01T11:43:10.424Z,13.53
2019-05-01T11:45:13.198Z,11.18
2019-05-01T11:47:15.259Z,11.20
2019-05-01T11:49:20.493Z,14.63
2019-05-01T11:51:23.075Z,12.85
2019-05-01T11:53:25.193Z,9.88
2019-05-01T11:55:27.267Z,11.33
2019-05-01T11:57:29.681Z,10.20
2019-05-01T11:59:32.909Z,15.05
2019-05-01T12:01:35.177Z,11.05
2019-05-01T12:05:39.326Z,8.75
2019-05-01T12:07:43.987Z,7.92
2019-05-01T12:09:46.506Z,7.92
2019-05-01T12:13:52.378Z,8.23
2019-05-01T12:16:02.040Z,8.93
2019-05-01T12:18:04.024Z,11.73
2019-05-01T12:20:06.327Z,13.40
2019-05-01T12:22:08.961Z,10.50
2019-05-01T12:24:12.232Z,11.22
2019-05-01T12:26:14.257Z,10.88
2019-05-01T12:28:16.587Z,10.60
2019-05-01T12:30:19.044Z,11.75
2019-05-01T12:34:22.867Z,8.58
2019-05-01T12:36:35.706Z,6.55
2019-05-01T12:38:29.825Z,7.92
2019-05-01T12:40:32.033Z,9.43
2019-05-01T12:42:34.169Z,9.55
2019-05-01T12:44:36.293Z,6.85
2019-05-01T12:46:53.477Z,9.90
2019-05-01T12:48:55.741Z,7.25
2019-05-01T12:50:58.091Z,7.33
2019-05-01T12:53:22.802Z,9.28
2019-05-01T12:55:50.191Z,5.58
2019-05-01T12:57:52.231Z,6.83
2019-05-01T13:00:07.603Z,5.78
2019-05-01T13:01:58.514Z,5.80
2019-05-01T13:04:00.773Z,6.83
2019-05-01T13:06:03.234Z,7.75
2019-05-01T13:10:07.243Z,8.18
2019-05-01T13:14:11.141Z,8.50
2019-05-01T13:16:13.166Z,6.00
2019-05-01T13:18:15.401Z,5.55
2019-05-01T13:20:17.453Z,7.90
2019-05-01T13:22:19.943Z,6.50
2019-05-01T13:24:22.497Z,5.58
2019-05-01T13:28:55.949Z,6.87
2019-05-01T13:31:06.061Z,7.17
2019-05-01T13:33:08.166Z,5.72
2019-05-01T13:35:10.473Z,6.95
2019-05-01T13:37:12.614Z,7.03
2019-05-01T13:39:15.041Z,7.37
2019-05-01T13:43:19.062Z,12.18
2019-05-01T13:45:21.410Z,9.43
2019-05-01T13:47:26.395Z,5.12
2019-05-01T13:49:28.715Z,8.45
2019-05-01T13:51:31.105Z,8.05
2019-05-01T13:53:33.473Z,8.60
2019-05-01T13:55:36.135Z,7.62
2019-05-01T13:57:38.191Z,6.20
2019-05-01T13:59:40.762Z,7.83
2019-05-01T14:01:43.139Z,4.92
2019-05-01T14:03:45.303Z,6.33
2019-05-01T14:05:47.666Z,7.03
2019-05-01T14:07:49.951Z,5.45
2019-05-01T14:09:53.506Z,5.15
2019-05-01T14:13:57.351Z,4.65
2019-05-01T14:15:59.382Z,5.62
2019-05-01T14:18:01.522Z,5.95
2019-05-01T14:20:25.562Z,5.50
2019-05-01T14:22:45.523Z,5.78
2019-05-01T14:24:50.348Z,6.17
2019-05-01T14:26:53.759Z,7.90
2019-05-01T14:28:55.950Z,7.15
2019-05-01T14:30:57.938Z,9.65
2019-05-01T14:33:00.433Z,4.60
2019-05-01T14:37:04.531Z,4.60
2019-05-01T14:39:06.960Z,6.22
2019-05-01T14:41:09.891Z,5.60
2019-05-01T14:43:11.976Z,5.92
2019-05-01T14:45:14.776Z,3.87
2019-05-01T14:47:16.851Z,4.10
2019-05-01T14:49:18.986Z,10.93
2019-05-01T14:51:21.897Z,6.37
2019-05-01T14:53:23.981Z,5.35
2019-05-01T14:55:26.057Z,6.28
2019-05-01T14:57:29.521Z,5.95
2019-05-01T15:01:33.345Z,4.83
2019-05-01T15:03:35.924Z,3.83
2019-05-01T15:07:43.819Z,5.55
2019-05-01T15:09:43.926Z,5.28
2019-05-01T15:11:47.321Z,7.12
2019-05-01T15:13:58.965Z,5.45
2019-05-01T15:16:13.681Z,4.28
2019-05-01T15:18:37.024Z,7.35
2019-05-01T15:20:39.317Z,8.73
2019-05-01T15:22:41.661Z,9.00
2019-05-01T15:24:43.928Z,12.13
2019-05-01T15:26:47.215Z,6.45
2019-05-01T15:28:49.796Z,8.83
2019-05-01T15:30:51.921Z,7.42
2019-05-01T15:32:54.023Z,8.90
2019-05-01T15:34:56.411Z,9.35
2019-05-01T15:36:58.466Z,7.62
2019-05-01T15:39:02.766Z,6.12
2019-05-01T15:41:14.984Z,5.85
2019-05-01T15:43:29.150Z,4.85
2019-05-01T15:45:31.442Z,9.18
2019-05-01T15:47:34.893Z,8.03
2019-05-01T15:49:37.266Z,7.62
2019-05-01T15:51:39.318Z,10.13
2019-05-01T15:53:41.976Z,9.83
2019-05-01T15:55:46.526Z,7.10
2019-05-01T15:57:48.304Z,5.60
2019-05-01T15:59:50.855Z,9.43
2019-05-01T16:03:54.964Z,10.48
2019-05-01T16:05:57.336Z,7.12
2019-05-01T16:10:05.900Z,6.53
2019-05-01T16:12:40.295Z,6.33
2019-05-01T16:14:45.685Z,7.53
2019-05-01T16:16:47.790Z,9.88
2019-05-01T16:18:51.571Z,7.35
2019-05-01T16:20:53.705Z,5.65
2019-05-01T16:22:56.061Z,7.83
2019-05-01T16:24:58.599Z,6.08
2019-05-01T16:29:02.749Z,4.97
2019-05-01T16:31:05.298Z,5.87
2019-05-01T16:33:07.875Z,6.50
2019-05-01T16:35:10.023Z,6.45
2019-05-01T16:37:12.176Z,5.83
2019-05-01T16:39:34.024Z,6.95
2019-05-01T16:41:36.046Z,8.65
2019-05-01T16:43:38.233Z,6.78
2019-05-01T16:45:40.238Z,5.17
2019-05-01T16:47:42.273Z,8.75
2019-05-01T16:49:44.515Z,9.30
2019-05-01T16:51:46.500Z,6.17
2019-05-01T16:53:48.548Z,6.65
2019-05-01T16:55:50.803Z,6.28
2019-05-01T16:57:52.781Z,4.47
2019-05-01T16:59:54.755Z,7.80
2019-05-01T17:02:11.573Z,8.95
2019-05-01T17:04:37.914Z,7.12
2019-05-01T17:06:58.330Z,8.08
2019-05-01T17:09:20.138Z,10.13
2019-05-01T17:11:26.717Z,6.03
2019-05-01T17:13:30.050Z,7.75
2019-05-01T17:15:40.981Z,12.78
2019-05-01T17:17:43.847Z,8.85
2019-05-01T17:19:45.905Z,8.00
2019-05-01T17:21:48.109Z,10.60
2019-05-01T17:23:50.396Z,8.18
2019-05-01T17:25:52.534Z,8.93
2019-05-01T17:27:54.771Z,10.75
2019-05-01T17:29:56.842Z,6.08
2019-05-01T17:31:58.869Z,7.62
2019-05-01T17:34:01.188Z,7.60
2019-05-01T17:36:04.252Z,9.60
2019-05-01T17:38:06.453Z,9.28
2019-05-01T17:40:09.687Z,9.68
2019-05-01T17:42:12.439Z,8.13
2019-05-01T17:44:20.096Z,7.70
2019-05-01T17:46:21.315Z,8.33
2019-05-01T17:48:23.446Z,9.30
2019-05-01T17:50:25.440Z,8.28
2019-05-01T17:52:27.831Z,8.78
2019-05-01T17:56:31.968Z,11.05
2019-05-01T17:58:34.305Z,11.57
2019-05-01T18:01:13.804Z,11.18
2019-05-01T18:03:38.734Z,7.42
2019-05-01T18:06:01.312Z,9.10
2019-05-01T18:08:04.588Z,9.33
2019-05-01T18:10:06.779Z,8.85
2019-05-01T18:12:08.792Z,7.60
2019-05-01T18:14:10.760Z,9.78
2019-05-01T18:16:13.128Z,13.45
2019-05-01T18:18:16.545Z,13.32
2019-05-01T18:20:18.848Z,11.68
2019-05-01T18:22:43.504Z,11.15
2019-05-01T18:24:58.549Z,10.70
2019-05-01T18:27:20.554Z,14.15
2019-05-01T18:29:44.609Z,12.45
2019-05-01T18:31:45.583Z,13.03
2019-05-01T18:33:47.836Z,28.73
2019-05-01T18:35:50.557Z,10.40
2019-05-01T18:38:06.286Z,11.73
2019-05-01T18:40:15.279Z,15.13
2019-05-01T18:42:17.608Z,13.20
2019-05-01T18:44:19.773Z,14.87
2019-05-01T18:46:24.255Z,15.72
2019-05-01T18:48:26.870Z,13.53
2019-05-01T18:50:28.950Z,13.53
2019-05-01T18:52:30.921Z,15.85
2019-05-01T18:54:34.969Z,14.23
2019-05-01T18:56:38.092Z,16.40
2019-05-01T18:58:41.190Z,16.45
2019-05-01T19:00:43.642Z,15.43
2019-05-01T19:04:47.377Z,13.60
2019-05-01T19:06:49.834Z,17.00
2019-05-01T19:10:53.501Z,18.25
2019-05-01T19:12:55.813Z,16.10
2019-05-01T19:17:02.453Z,17.70
2019-05-01T19:19:04.782Z,14.30
2019-05-01T19:21:07.260Z,13.88
2019-05-01T19:23:09.544Z,14.93
2019-05-01T19:25:16.377Z,14.03
2019-05-01T19:27:18.932Z,14.85
2019-05-01T19:29:20.400Z,18.98
2019-05-01T19:31:22.632Z,20.75
2019-05-01T19:33:24.719Z,21.75
2019-05-01T19:35:29.018Z,24.87
2019-05-01T19:37:31.211Z,19.90
2019-05-01T19:39:43.433Z,20.00
2019-05-01T19:41:37.531Z,20.02
2019-05-01T19:43:40.390Z,22.87
2019-05-01T19:45:44.098Z,24.25
2019-05-01T19:49:48.331Z,24.47
2019-05-01T19:53:53.535Z,19.17
2019-05-01T19:55:56.029Z,26.23
2019-05-01T19:57:58.129Z,21.73
2019-05-01T20:00:00.574Z,24.43
2019-05-01T20:04:08.557Z,25.48
2019-05-01T20:06:09.203Z,25.80
2019-05-01T20:08:11.778Z,27.48
2019-05-01T20:12:16.395Z,27.82
2019-05-01T20:14:18.673Z,27.05
2019-05-01T20:16:21.183Z,29.37
2019-05-01T20:18:23.705Z,30.30
2019-05-01T20:22:27.856Z,31.90
2019-05-01T20:24:29.874Z,24.55
2019-05-01T20:26:34.011Z,28.23
2019-05-01T20:28:37.407Z,23.67
2019-05-01T20:30:39.891Z,30.43
2019-05-01T20:32:42.147Z,29.92
2019-05-01T20:34:47.978Z,25.90
2019-05-01T20:36:48.186Z,28.07
2019-05-01T20:38:50.268Z,27.65
2019-05-01T20:40:52.397Z,28.95
2019-05-01T20:42:54.504Z,29.40
2019-05-01T20:45:04.313Z,29.50
2019-05-01T20:47:02.572Z,31.42
2019-05-01T20:49:07.558Z,30.43
2019-05-01T20:51:11.862Z,31.97
2019-05-01T20:53:14.033Z,28.07
2019-05-01T20:55:17.408Z,29.90
2019-05-01T20:57:25.471Z,31.40
2019-05-01T20:59:27.663Z,31.42
2019-05-01T21:01:30.351Z,30.35
2019-05-01T21:03:32.736Z,30.08
2019-05-01T21:05:41.315Z,28.10
2019-05-01T21:08:03.030Z,26.93
2019-05-01T21:10:07.148Z,29.50
2019-05-01T21:12:09.441Z,28.32
2019-05-01T21:14:22.264Z,32.70
2019-05-01T21:16:18.503Z,29.98
2019-05-01T21:18:20.972Z,33.92
2019-05-01T21:20:24.726Z,35.60
2019-05-01T21:22:26.941Z,30.05
2019-05-01T21:24:29.036Z,35.05
2019-05-01T21:28:34.079Z,34.38
2019-05-01T21:30:38.734Z,34.33
2019-05-01T21:34:10.959Z,34.43
2019-05-01T21:36:13.139Z,35.70
2019-05-01T21:38:15.258Z,38.83
2019-05-01T21:40:17.740Z,34.55
2019-05-01T21:44:23.259Z,32.73
2019-05-01T21:46:25.763Z,32.28
2019-05-01T21:50:29.636Z,33.75
2019-05-01T21:52:33.315Z,34.15
2019-05-01T21:54:35.333Z,38.95
2019-05-01T21:56:41.530Z,42.43
2019-05-01T21:58:42.230Z,35.03
2019-05-01T22:00:44.549Z,35.25
2019-05-01T22:06:52.118Z,37.23
2019-05-01T22:08:55.320Z,35.52
2019-05-01T22:11:01.700Z,36.95
2019-05-01T22:13:01.797Z,34.88
2019-05-01T22:15:12.245Z,36.50
2019-05-01T22:17:38.990Z,36.38
2019-05-01T22:19:40.965Z,36.35
2019-05-01T22:22:07.115Z,33.95
2019-05-01T22:24:21.725Z,38.15
2019-05-01T22:26:24.054Z,36.77
2019-05-01T22:30:55.358Z,35.35
2019-05-01T22:32:59.809Z,38.30
2019-05-01T22:35:16.670Z,36.90
2019-05-01T22:37:18.946Z,38.63
2019-05-01T22:39:23.983Z,37.90
2019-05-01T22:41:26.038Z,37.17
2019-05-01T22:43:28.733Z,41.40
2019-05-01T22:45:30.728Z,37.30
2019-05-01T22:47:32.754Z,38.25
2019-05-01T22:49:34.989Z,40.83
2019-05-01T22:51:37.074Z,39.00
2019-05-01T22:53:39.325Z,37.63
2019-05-01T22:55:41.484Z,38.92
2019-05-01T22:57:43.632Z,40.08
2019-05-01T22:59:47.518Z,39.18
2019-05-01T23:01:53.029Z,43.90
2019-05-01T23:04:01.565Z,40.95
2019-05-01T23:06:06.234Z,40.35
2019-05-01T23:08:07.873Z,40.03
2019-05-01T23:10:09.907Z,40.40
2019-05-01T23:12:12.055Z,39.20
2019-05-01T23:14:14.795Z,42.53
2019-05-01T23:16:18.869Z,40.38
2019-05-01T23:18:20.831Z,39.23
2019-05-01T23:20:23.206Z,39.85
2019-05-01T23:24:27.295Z,39.73
2019-05-01T23:26:29.505Z,44.38
2019-05-01T23:28:34.875Z,44.35
2019-05-01T23:30:35.931Z,40.83
2019-05-01T23:32:38.151Z,42.93
2019-05-01T23:34:40.332Z,42.80
2019-05-01T23:36:42.344Z,40.65
2019-05-01T23:38:44.728Z,41.95
2019-05-01T23:42:53.510Z,41.15
2019-05-01T23:44:54.620Z,41.15
2019-05-01T23:49:30.824Z,48.50
2019-05-01T23:51:32.845Z,48.50
2019-05-01T23:53:35.195Z,47.38
2019-05-01T23:57:39.265Z,51.20
